createdAt,value
2019-02-15T00:01:35.872Z,1.18
2019-02-15T00:04:05.563Z,1.15
2019-02-15T00:06:35.256Z,1.09
2019-02-15T00:09:05.972Z,1.12
2019-02-15T00:11:35.678Z,1.15
2019-02-15T00:14:05.377Z,1.08
2019-02-15T00:16:35.063Z,1.13
2019-02-15T00:19:06.426Z,0.93
2019-02-15T00:21:36.092Z,0.86
2019-02-15T00:24:05.785Z,0.83
2019-02-15T00:26:35.534Z,0.83
2019-02-15T00:29:05.233Z,0.74
2019-02-15T00:31:35.004Z,0.73
2019-02-15T00:34:08.508Z,0.71
2019-02-15T00:36:38.265Z,0.62
2019-02-15T00:39:08.694Z,0.64
2019-02-15T00:41:38.485Z,0.62
2019-02-15T00:44:08.200Z,0.61
2019-02-15T00:46:45.340Z,0.62
2019-02-15T00:49:16.678Z,0.65
2019-02-15T00:51:48.036Z,0.55
2019-02-15T00:54:30.306Z,0.54
2019-02-15T00:57:18.324Z,0.55
2019-02-15T00:59:49.628Z,0.47
2019-02-15T01:02:33.017Z,0.32
2019-02-15T01:05:13.227Z,0.26
2019-02-15T01:07:50.294Z,0.39
2019-02-15T01:10:30.716Z,0.40
2019-02-15T01:13:02.037Z,0.42
2019-02-15T01:15:31.747Z,0.37
2019-02-15T01:18:01.418Z,0.40
2019-02-15T01:20:31.120Z,0.39
2019-02-15T01:23:01.009Z,0.37
2019-02-15T01:25:32.372Z,0.33
2019-02-15T01:28:06.359Z,0.30
2019-02-15T01:30:54.193Z,0.31
2019-02-15T01:33:38.048Z,0.30
2019-02-15T01:36:14.916Z,0.29
2019-02-15T01:38:51.990Z,0.29
2019-02-15T01:41:29.055Z,0.29
2019-02-15T01:44:08.050Z,0.23
2019-02-15T01:46:39.386Z,0.24
2019-02-15T01:49:09.082Z,0.32
2019-02-15T01:51:38.957Z,0.47
2019-02-15T01:54:08.710Z,0.46
2019-02-15T01:56:44.392Z,0.50
2019-02-15T01:59:14.333Z,0.34
2019-02-15T02:01:44.037Z,0.26
2019-02-15T02:04:13.664Z,0.14
2019-02-15T02:06:43.384Z,0.12
2019-02-15T02:09:13.253Z,0.15
2019-02-15T02:11:43.002Z,0.16
2019-02-15T02:14:12.645Z,0.25
2019-02-15T02:16:42.623Z,0.17
2019-02-15T02:19:12.450Z,0.13
2019-02-15T02:21:43.031Z,0.11
2019-02-15T02:24:12.883Z,0.00
2019-02-15T02:26:42.604Z,-0.02
2019-02-15T02:29:12.372Z,-0.03
2019-02-15T02:31:42.095Z,-0.02
2019-02-15T02:34:11.816Z,0.03
2019-02-15T02:36:49.827Z,0.04
2019-02-15T02:39:19.664Z,0.12
2019-02-15T02:41:49.429Z,-0.01
2019-02-15T02:44:19.203Z,0.02
2019-02-15T02:46:48.959Z,0.01
2019-02-15T02:49:18.680Z,-0.05
2019-02-15T02:51:48.381Z,-0.09
2019-02-15T02:54:18.072Z,-0.14
2019-02-15T02:56:47.769Z,-0.12
2019-02-15T02:59:17.488Z,-0.24
2019-02-15T03:01:47.167Z,-0.23
2019-02-15T03:04:16.960Z,-0.25
2019-02-15T03:06:46.800Z,-0.25
2019-02-15T03:09:16.519Z,-0.18
2019-02-15T03:11:46.654Z,-0.07
2019-02-15T03:14:16.641Z,-0.04
2019-02-15T03:16:46.532Z,-0.02
2019-02-15T03:19:16.473Z,-0.02
2019-02-15T03:21:46.552Z,-0.07
2019-02-15T03:24:16.430Z,-0.21
2019-02-15T03:26:47.082Z,-0.21
2019-02-15T03:29:16.794Z,-0.25
2019-02-15T03:31:46.475Z,-0.21
2019-02-15T03:34:16.188Z,-0.03
2019-02-15T03:36:53.661Z,-0.22
2019-02-15T03:39:41.104Z,-0.23
2019-02-15T03:42:12.505Z,-0.29
2019-02-15T03:44:42.234Z,-0.29
2019-02-15T03:47:13.573Z,-0.36
2019-02-15T03:49:43.275Z,-0.34
2019-02-15T03:52:12.986Z,-0.34
2019-02-15T03:54:42.716Z,-0.30
2019-02-15T03:57:12.393Z,-0.15
2019-02-15T03:59:42.226Z,-0.08
2019-02-15T04:02:11.936Z,-0.05
2019-02-15T04:04:41.657Z,-0.06
2019-02-15T04:07:11.334Z,0.00
2019-02-15T04:09:41.027Z,-0.02
2019-02-15T04:12:10.871Z,-0.11
2019-02-15T04:14:40.676Z,-0.16
2019-02-15T04:17:10.339Z,-0.22
2019-02-15T04:19:40.085Z,-0.27
2019-02-15T04:22:09.770Z,-0.32
2019-02-15T04:24:39.463Z,-0.34
2019-02-15T04:27:09.186Z,-0.30
2019-02-15T04:29:38.888Z,-0.27
2019-02-15T04:32:08.608Z,-0.27
2019-02-15T04:34:38.288Z,-0.29
2019-02-15T04:37:07.997Z,-0.29
2019-02-15T04:39:37.693Z,-0.32
2019-02-15T04:42:07.415Z,-0.37
2019-02-15T04:44:42.873Z,-0.42
2019-02-15T04:47:08.509Z,-0.41
2019-02-15T04:49:38.248Z,-0.38
2019-02-15T04:52:07.971Z,-0.38
2019-02-15T04:54:37.641Z,-0.39
2019-02-15T04:57:07.393Z,-0.48
2019-02-15T04:59:37.060Z,-0.53
2019-02-15T05:02:06.795Z,-0.51
2019-02-15T05:04:36.499Z,-0.45
2019-02-15T05:07:06.238Z,-0.45
2019-02-15T05:09:35.926Z,-0.48
2019-02-15T05:12:05.644Z,-0.03
2019-02-15T05:14:35.327Z,-0.11
2019-02-15T05:17:05.026Z,-0.20
2019-02-15T05:19:34.802Z,-0.18
2019-02-15T05:22:04.498Z,-0.17
2019-02-15T05:24:34.192Z,-0.20
2019-02-15T05:27:03.947Z,-0.28
2019-02-15T05:29:33.643Z,-0.18
2019-02-15T05:32:03.344Z,-0.09
2019-02-15T05:34:33.007Z,-0.02
2019-02-15T05:37:03.802Z,-0.01
2019-02-15T05:39:33.494Z,0.01
2019-02-15T05:42:03.214Z,0.05
2019-02-15T05:44:32.920Z,0.18
2019-02-15T05:47:02.628Z,0.16
2019-02-15T05:49:32.323Z,0.10
2019-02-15T05:52:02.169Z,-0.06
2019-02-15T05:54:31.842Z,-0.13
2019-02-15T05:57:01.573Z,-0.17
2019-02-15T05:59:31.264Z,-0.22
2019-02-15T06:02:04.061Z,-0.23
2019-02-15T06:04:33.722Z,-0.20
2019-02-15T06:07:03.465Z,-0.26
2019-02-15T06:09:33.162Z,-0.30
2019-02-15T06:12:02.944Z,-0.36
2019-02-15T06:14:32.660Z,-0.34
2019-02-15T06:17:02.423Z,-0.23
2019-02-15T06:19:32.597Z,-0.06
2019-02-15T06:22:02.484Z,-0.01
2019-02-15T06:24:32.202Z,-0.07
2019-02-15T06:27:01.914Z,-0.12
2019-02-15T06:29:32.610Z,-0.09
2019-02-15T06:32:02.306Z,-0.15
2019-02-15T06:34:40.155Z,-0.07
2019-02-15T06:37:11.399Z,-0.07
2019-02-15T06:39:41.126Z,-0.03
2019-02-15T06:42:11.896Z,0.03
2019-02-15T06:44:41.620Z,0.09
2019-02-15T06:47:11.332Z,-0.02
2019-02-15T06:49:41.024Z,-0.03
2019-02-15T06:52:10.748Z,-0.07
2019-02-15T06:54:40.527Z,0.05
2019-02-15T06:57:10.232Z,0.07
2019-02-15T06:59:56.660Z,0.00
2019-02-15T07:02:28.014Z,0.04
2019-02-15T07:05:02.030Z,0.05
2019-02-15T07:07:31.745Z,0.02
2019-02-15T07:10:01.437Z,0.07
2019-02-15T07:12:31.124Z,0.01
2019-02-15T07:15:00.880Z,0.09
2019-02-15T07:17:30.579Z,0.20
2019-02-15T07:20:00.377Z,0.41
2019-02-15T07:22:30.275Z,0.37
2019-02-15T07:24:59.997Z,0.39
2019-02-15T07:27:29.681Z,0.43
2019-02-15T07:29:59.389Z,0.45
2019-02-15T07:32:29.088Z,0.54
2019-02-15T07:34:59.278Z,0.67
2019-02-15T07:37:29.001Z,0.84
2019-02-15T07:39:58.692Z,1.03
2019-02-15T07:42:28.346Z,1.14
2019-02-15T07:44:58.052Z,1.33
2019-02-15T07:47:27.776Z,1.48
2019-02-15T07:49:57.487Z,1.64
2019-02-15T07:52:27.144Z,1.73
2019-02-15T07:54:56.861Z,1.97
2019-02-15T07:57:26.603Z,2.06
2019-02-15T08:00:00.483Z,2.18
2019-02-15T08:02:31.038Z,2.32
2019-02-15T08:05:00.748Z,2.38
2019-02-15T08:07:30.428Z,2.57
2019-02-15T08:10:00.307Z,2.67
2019-02-15T08:12:29.970Z,2.76
2019-02-15T08:14:59.690Z,2.95
2019-02-15T08:17:29.385Z,3.09
2019-02-15T08:20:06.704Z,3.18
2019-02-15T08:22:39.325Z,3.33
2019-02-15T08:25:10.797Z,3.49
2019-02-15T08:27:42.155Z,3.72
2019-02-15T08:30:12.903Z,3.89
2019-02-15T08:32:44.113Z,4.02
2019-02-15T08:35:13.831Z,4.10
2019-02-15T08:37:43.494Z,4.21
2019-02-15T08:40:13.213Z,4.37
2019-02-15T08:42:42.928Z,4.49
2019-02-15T08:45:14.187Z,4.68
2019-02-15T08:47:43.859Z,4.89
2019-02-15T08:50:13.624Z,5.06
2019-02-15T08:52:43.360Z,5.18
2019-02-15T08:55:13.096Z,5.13
2019-02-15T08:57:42.821Z,5.30
2019-02-15T09:00:13.529Z,5.40
2019-02-15T09:02:43.227Z,5.57
2019-02-15T09:05:13.388Z,5.59
2019-02-15T09:07:43.111Z,5.77
2019-02-15T09:10:13.953Z,5.88
2019-02-15T09:12:43.668Z,6.01
2019-02-15T09:15:18.617Z,6.18
2019-02-15T09:17:48.541Z,6.28
2019-02-15T09:20:18.249Z,6.30
2019-02-15T09:22:49.991Z,6.42
2019-02-15T09:25:19.757Z,6.58
2019-02-15T09:27:51.252Z,6.66
2019-02-15T09:30:20.925Z,6.85
2019-02-15T09:32:50.613Z,6.89
2019-02-15T09:35:20.338Z,7.02
2019-02-15T09:37:50.019Z,7.10
2019-02-15T09:40:19.763Z,7.24
2019-02-15T09:42:49.432Z,7.32
2019-02-15T09:45:19.349Z,7.43
2019-02-15T09:47:49.065Z,7.61
2019-02-15T09:50:18.731Z,7.52
2019-02-15T09:52:48.390Z,7.54
2019-02-15T09:55:18.138Z,7.67
2019-02-15T09:57:48.079Z,7.84
2019-02-15T10:00:17.722Z,7.96
2019-02-15T10:02:47.429Z,8.03
2019-02-15T10:05:17.152Z,8.24
2019-02-15T10:07:46.873Z,8.21
2019-02-15T10:10:16.560Z,8.42
2019-02-15T10:12:46.338Z,8.36
2019-02-15T10:15:16.024Z,8.81
2019-02-15T10:17:45.842Z,8.94
2019-02-15T10:20:15.540Z,8.97
2019-02-15T10:22:45.315Z,9.09
2019-02-15T10:25:15.021Z,9.05
2019-02-15T10:27:44.726Z,8.97
2019-02-15T10:30:14.414Z,9.06
2019-02-15T10:32:44.074Z,8.92
2019-02-15T10:35:14.145Z,9.22
2019-02-15T10:37:43.839Z,9.29
2019-02-15T10:40:13.515Z,9.15
2019-02-15T10:42:43.164Z,9.31
2019-02-15T10:45:18.721Z,9.34
2019-02-15T10:47:48.364Z,9.41
2019-02-15T10:50:18.069Z,9.48
2019-02-15T10:52:48.039Z,9.51
2019-02-15T10:55:17.799Z,9.77
2019-02-15T10:57:47.524Z,9.57
2019-02-15T11:00:19.515Z,9.69
2019-02-15T11:02:49.193Z,9.74
2019-02-15T11:05:19.194Z,9.63
2019-02-15T11:07:48.900Z,9.78
2019-02-15T11:10:18.611Z,9.79
2019-02-15T11:12:48.315Z,9.76
2019-02-15T11:15:18.309Z,9.78
2019-02-15T11:17:48.142Z,9.73
2019-02-15T11:20:18.577Z,9.95
2019-02-15T11:22:48.306Z,10.06
2019-02-15T11:25:18.036Z,10.16
2019-02-15T11:27:47.756Z,10.21
2019-02-15T11:30:17.862Z,10.27
2019-02-15T11:32:47.544Z,10.38
2019-02-15T11:35:17.263Z,10.46
2019-02-15T11:37:48.103Z,10.17
2019-02-15T11:40:17.816Z,10.38
2019-02-15T11:42:51.322Z,10.35
2019-02-15T11:45:23.052Z,10.61
2019-02-15T11:47:52.735Z,10.78
2019-02-15T11:50:22.467Z,10.76
2019-02-15T11:52:52.224Z,10.64
2019-02-15T11:55:21.971Z,10.68
2019-02-15T11:57:51.696Z,10.93
2019-02-15T12:00:25.677Z,11.09
2019-02-15T12:03:03.983Z,11.01
2019-02-15T12:05:33.878Z,11.04
2019-02-15T12:08:03.574Z,11.07
2019-02-15T12:10:33.346Z,11.28
2019-02-15T12:13:03.054Z,11.27
2019-02-15T12:15:32.746Z,11.18
2019-02-15T12:18:07.950Z,11.37
2019-02-15T12:20:37.669Z,11.38
2019-02-15T12:23:07.401Z,11.34
2019-02-15T12:25:37.092Z,11.58
2019-02-15T12:28:06.826Z,11.50
2019-02-15T12:30:36.533Z,11.29
2019-02-15T12:33:06.210Z,11.36
2019-02-15T12:35:35.887Z,11.40
2019-02-15T12:38:06.696Z,11.47
2019-02-15T12:40:36.404Z,11.71
2019-02-15T12:43:06.124Z,11.73
2019-02-15T12:45:35.878Z,11.65
2019-02-15T12:48:05.959Z,11.81
2019-02-15T12:50:35.704Z,11.60
2019-02-15T12:53:07.143Z,11.75
2019-02-15T12:55:36.863Z,11.83
2019-02-15T12:58:06.554Z,11.84
2019-02-15T13:00:38.202Z,11.89
2019-02-15T13:03:09.246Z,12.09
2019-02-15T13:05:45.891Z,11.89
2019-02-15T13:08:16.084Z,11.88
2019-02-15T13:10:45.944Z,11.88
2019-02-15T13:13:15.631Z,11.85
2019-02-15T13:15:45.330Z,12.16
2019-02-15T13:18:14.999Z,11.93
2019-02-15T13:20:44.687Z,12.11
2019-02-15T13:23:14.393Z,12.08
2019-02-15T13:25:44.141Z,12.15
2019-02-15T13:28:13.896Z,12.14
2019-02-15T13:30:43.650Z,12.22
2019-02-15T13:33:13.375Z,12.26
2019-02-15T13:35:43.047Z,12.25
2019-02-15T13:38:12.724Z,12.40
2019-02-15T13:40:42.460Z,12.33
2019-02-15T13:43:12.142Z,12.35
2019-02-15T13:45:41.838Z,12.24
2019-02-15T13:48:11.546Z,12.25
2019-02-15T13:50:41.242Z,12.23
2019-02-15T13:53:10.943Z,12.25
2019-02-15T13:55:40.632Z,12.31
2019-02-15T13:58:10.321Z,12.59
2019-02-15T14:00:40.048Z,12.66
2019-02-15T14:03:09.737Z,13.06
2019-02-15T14:05:39.512Z,13.43
2019-02-15T14:08:09.191Z,13.79
2019-02-15T14:10:38.930Z,13.85
2019-02-15T14:13:08.591Z,13.93
2019-02-15T14:15:38.301Z,13.69
2019-02-15T14:18:07.997Z,13.52
2019-02-15T14:20:37.697Z,13.26
2019-02-15T14:23:07.368Z,13.07
2019-02-15T14:25:37.060Z,12.84
2019-02-15T14:28:06.739Z,12.87
2019-02-15T14:30:46.931Z,12.75
2019-02-15T14:33:16.884Z,12.59
2019-02-15T14:35:46.570Z,12.43
2019-02-15T14:38:16.270Z,12.39
2019-02-15T14:40:45.972Z,12.32
2019-02-15T14:43:15.676Z,12.54
2019-02-15T14:45:45.393Z,12.49
2019-02-15T14:48:15.035Z,12.34
2019-02-15T14:50:48.076Z,12.47
2019-02-15T14:53:17.886Z,12.39
2019-02-15T14:55:47.597Z,12.39
2019-02-15T14:58:17.306Z,12.14
2019-02-15T15:00:48.055Z,11.96
2019-02-15T15:03:17.838Z,12.17
2019-02-15T15:05:48.311Z,12.23
2019-02-15T15:08:18.010Z,12.13
2019-02-15T15:10:47.720Z,12.13
2019-02-15T15:13:18.337Z,12.08
2019-02-15T15:15:48.032Z,12.06
2019-02-15T15:18:17.737Z,12.00
2019-02-15T15:20:47.571Z,12.12
2019-02-15T15:23:17.265Z,12.00
2019-02-15T15:25:46.969Z,12.05
2019-02-15T15:28:16.706Z,11.85
2019-02-15T15:30:46.483Z,11.66
2019-02-15T15:33:16.197Z,11.61
2019-02-15T15:35:45.966Z,11.67
2019-02-15T15:38:15.694Z,11.58
2019-02-15T15:40:45.422Z,11.51
2019-02-15T15:43:15.176Z,11.48
2019-02-15T15:45:44.830Z,11.30
2019-02-15T15:48:22.519Z,11.31
2019-02-15T15:50:45.980Z,11.17
2019-02-15T15:53:15.651Z,11.20
2019-02-15T15:55:45.363Z,11.08
2019-02-15T15:58:15.054Z,11.01
2019-02-15T16:00:44.780Z,10.97
2019-02-15T16:03:14.562Z,11.01
2019-02-15T16:05:45.316Z,10.91
2019-02-15T16:08:15.060Z,10.79
2019-02-15T16:10:45.358Z,10.64
2019-02-15T16:16:04.020Z,10.21
2019-02-15T16:18:35.162Z,9.81
2019-02-15T16:21:05.020Z,9.65
2019-02-15T16:23:34.722Z,9.43
2019-02-15T16:26:04.429Z,9.20
2019-02-15T16:28:34.156Z,9.00
2019-02-15T16:31:03.848Z,8.81
2019-02-15T16:33:33.559Z,8.72
2019-02-15T16:36:03.779Z,8.67
2019-02-15T16:38:33.461Z,8.53
2019-02-15T16:41:03.141Z,8.42
2019-02-15T16:43:32.836Z,8.32
2019-02-15T16:46:02.517Z,8.19
2019-02-15T16:48:41.720Z,8.04
2019-02-15T16:51:04.061Z,8.03
2019-02-15T16:53:33.783Z,8.05
2019-02-15T16:56:03.455Z,7.98
2019-02-15T16:58:33.151Z,7.88
2019-02-15T17:01:02.841Z,7.91
2019-02-15T17:03:32.517Z,7.83
2019-02-15T17:06:02.450Z,7.77
2019-02-15T17:08:32.233Z,7.69
2019-02-15T17:11:01.927Z,7.57
2019-02-15T17:13:31.608Z,7.42
2019-02-15T17:16:01.354Z,7.31
2019-02-15T17:18:31.064Z,7.25
2019-02-15T17:21:00.742Z,7.21
2019-02-15T17:23:30.519Z,7.19
2019-02-15T17:26:00.223Z,7.24
2019-02-15T17:28:29.918Z,7.12
2019-02-15T17:30:59.784Z,7.12
2019-02-15T17:33:29.468Z,7.02
2019-02-15T17:35:59.125Z,7.08
2019-02-15T17:38:28.778Z,7.06
2019-02-15T17:40:59.870Z,6.95
2019-02-15T17:43:29.721Z,6.91
2019-02-15T17:45:59.403Z,6.90
2019-02-15T17:48:29.116Z,6.88
2019-02-15T17:50:58.820Z,6.99
2019-02-15T17:53:29.367Z,7.06
2019-02-15T17:55:58.975Z,6.98
2019-02-15T17:58:28.614Z,6.92
2019-02-15T18:00:58.217Z,6.81
2019-02-15T18:03:27.891Z,6.73
2019-02-15T18:05:57.524Z,6.62
2019-02-15T18:08:27.123Z,6.57
2019-02-15T18:10:58.635Z,6.52
2019-02-15T18:13:28.377Z,6.51
2019-02-15T18:15:58.079Z,6.50
2019-02-15T18:18:27.696Z,6.45
2019-02-15T18:20:57.387Z,6.43
2019-02-15T18:23:27.152Z,6.33
2019-02-15T18:25:56.825Z,6.37
2019-02-15T18:28:26.622Z,6.35
2019-02-15T18:30:56.321Z,6.36
2019-02-15T18:33:25.996Z,6.32
2019-02-15T18:35:55.713Z,6.37
2019-02-15T18:38:25.401Z,6.37
2019-02-15T18:40:55.099Z,6.35
2019-02-15T18:43:24.769Z,6.42
2019-02-15T18:45:54.461Z,6.34
2019-02-15T18:48:24.762Z,6.41
2019-02-15T18:50:54.874Z,6.53
2019-02-15T18:53:24.573Z,6.60
2019-02-15T18:55:54.275Z,6.64
2019-02-15T18:58:23.927Z,6.79
2019-02-15T19:00:56.204Z,7.03
2019-02-15T19:03:26.175Z,7.06
2019-02-15T19:05:55.870Z,6.99
2019-02-15T19:08:25.559Z,6.89
2019-02-15T19:10:55.237Z,6.82
2019-02-15T19:13:24.945Z,6.90
2019-02-15T19:15:54.652Z,7.13
2019-02-15T19:18:24.341Z,7.11
2019-02-15T19:20:54.217Z,7.13
2019-02-15T19:23:23.906Z,7.00
2019-02-15T19:25:55.510Z,6.93
2019-02-15T19:28:25.224Z,6.88
2019-02-15T19:30:55.065Z,6.87
2019-02-15T19:33:24.784Z,6.83
2019-02-15T19:35:54.492Z,6.74
2019-02-15T19:38:24.751Z,6.66
2019-02-15T19:40:54.409Z,6.59
2019-02-15T19:43:24.089Z,6.55
2019-02-15T19:45:53.744Z,6.53
2019-02-15T19:48:24.797Z,6.50
2019-02-15T19:50:54.495Z,6.37
2019-02-15T19:53:24.172Z,6.22
2019-02-15T19:55:54.860Z,6.11
2019-02-15T19:58:24.510Z,6.06
2019-02-15T20:00:54.255Z,5.88
2019-02-15T20:03:23.992Z,5.71
2019-02-15T20:05:54.337Z,5.58
2019-02-15T20:08:24.009Z,5.54
2019-02-15T20:10:53.706Z,5.53
2019-02-15T20:13:23.383Z,5.49
2019-02-15T20:15:58.043Z,5.48
2019-02-15T20:18:27.737Z,5.48
2019-02-15T20:20:57.407Z,5.43
2019-02-15T20:23:27.160Z,5.27
2019-02-15T20:25:56.833Z,5.43
2019-02-15T20:28:26.569Z,5.89
2019-02-15T20:30:56.232Z,6.39
2019-02-15T20:33:25.988Z,6.50
2019-02-15T20:35:55.665Z,6.50
2019-02-15T20:38:25.373Z,6.40
2019-02-15T20:40:55.038Z,6.24
2019-02-15T20:43:24.750Z,6.30
2019-02-15T20:45:54.409Z,6.52
2019-02-15T20:48:24.148Z,6.55
2019-02-15T20:50:53.827Z,6.50
2019-02-15T20:53:23.525Z,6.45
2019-02-15T20:55:53.221Z,6.51
2019-02-15T20:58:22.906Z,6.74
2019-02-15T21:00:52.587Z,6.55
2019-02-15T21:03:22.386Z,6.67
2019-02-15T21:05:52.080Z,6.74
2019-02-15T21:08:21.783Z,6.55
2019-02-15T21:10:55.193Z,6.67
2019-02-15T21:13:22.857Z,6.58
2019-02-15T21:15:52.552Z,6.46
2019-02-15T21:18:22.246Z,6.55
2019-02-15T21:20:52.391Z,6.69
2019-02-15T21:23:22.192Z,6.74
2019-02-15T21:25:51.851Z,6.71
2019-02-15T21:28:21.503Z,6.48
2019-02-15T21:30:51.184Z,6.62
2019-02-15T21:33:20.869Z,6.29
2019-02-15T21:35:50.525Z,6.20
2019-02-15T21:38:20.208Z,6.01
2019-02-15T21:40:49.905Z,5.88
2019-02-15T21:43:19.650Z,5.74
2019-02-15T21:45:49.288Z,5.53
2019-02-15T21:48:19.001Z,5.45
2019-02-15T21:50:48.750Z,5.19
2019-02-15T21:53:18.486Z,5.17
2019-02-15T21:55:48.115Z,5.09
2019-02-15T21:58:18.022Z,4.97
2019-02-15T22:00:47.700Z,4.97
2019-02-15T22:03:17.401Z,5.18
2019-02-15T22:05:47.077Z,5.44
2019-02-15T22:08:16.793Z,5.49
2019-02-15T22:10:46.479Z,5.64
2019-02-15T22:13:17.699Z,5.63
2019-02-15T22:19:12.805Z,5.78
2019-02-15T22:21:42.551Z,5.90
2019-02-15T22:24:12.176Z,5.89
2019-02-15T22:26:41.957Z,5.71
2019-02-15T22:29:11.569Z,5.84
2019-02-15T22:31:41.256Z,5.86
2019-02-15T22:34:10.865Z,5.70
2019-02-15T22:36:40.480Z,5.60
2019-02-15T22:39:10.105Z,5.71
2019-02-15T22:41:39.725Z,5.72
2019-02-15T22:44:09.440Z,5.67
2019-02-15T22:46:39.043Z,5.66
2019-02-15T22:49:08.676Z,5.57
2019-02-15T22:51:38.281Z,5.73
2019-02-15T22:54:08.094Z,5.55
2019-02-15T22:56:37.709Z,5.47
2019-02-15T22:59:07.377Z,5.46
2019-02-15T23:01:37.155Z,5.11
2019-02-15T23:04:06.752Z,4.93
2019-02-15T23:06:36.391Z,4.80
2019-02-15T23:09:09.292Z,4.71
2019-02-15T23:11:38.909Z,4.53
2019-02-15T23:14:08.596Z,4.51
2019-02-15T23:16:38.250Z,4.39
2019-02-15T23:19:07.883Z,4.33
2019-02-15T23:21:37.495Z,4.31
2019-02-15T23:24:07.105Z,4.29
2019-02-15T23:26:36.727Z,4.29
2019-02-15T23:29:06.376Z,4.51
2019-02-15T23:31:36.010Z,4.42
2019-02-15T23:34:05.660Z,4.37
2019-02-15T23:36:35.342Z,4.26
2019-02-15T23:39:06.481Z,4.18
2019-02-15T23:41:36.172Z,4.14
2019-02-15T23:44:05.853Z,4.07
2019-02-15T23:46:35.576Z,4.18
2019-02-15T23:49:05.242Z,4.38
2019-02-15T23:51:34.988Z,4.37
2019-02-15T23:54:04.664Z,4.35
2019-02-15T23:56:34.358Z,4.16
2019-02-15T23:59:04.029Z,4.11
